Time;durP1;ratioP1;P1;durP2;ratioP2;P2;SDS_P1;SDS_P2;PMS_P1;PMS_P2;Temp;Humidity;BMP_temperature;BMP_pressure;BME280_temperature;BME280_humidity;BME280_pressure;Samples;Min_cycle;Max_cycle;Signal;HPM_P1;HPM_P2
2023/06/10 00:00:46;;;;;;;26.37;24.87;;;14.30;99.90;;;;;;6268826;22;20168;-86
2023/06/10 00:03:14;;;;;;;21.57;20.37;;;14.30;99.90;;;;;;6268224;22;20160;-85
2023/06/10 00:05:41;;;;;;;18.27;17.40;;;14.30;99.90;;;;;;6268108;22;20209;-84
2023/06/10 00:08:07;;;;;;;18.30;16.87;;;14.30;99.90;;;;;;6269159;22;20210;-84
2023/06/10 00:10:35;;;;;;;16.60;15.50;;;14.30;99.90;;;;;;6269098;22;20669;-85
2023/06/10 00:13:04;;;;;;;13.87;12.97;;;14.30;99.90;;;;;;6269268;22;20220;-87
2023/06/10 00:15:30;;;;;;;13.40;12.37;;;14.30;99.90;;;;;;6244910;22;20214;-88
2023/06/10 00:17:56;;;;;;;11.63;10.93;;;14.20;99.90;;;;;;6244146;22;20596;-85
2023/06/10 00:20:23;;;;;;;11.97;11.00;;;14.20;99.90;;;;;;6270059;22;20171;-85
2023/06/10 00:22:52;;;;;;;11.60;10.50;;;14.20;99.90;;;;;;6269863;22;20161;-85
2023/06/10 00:25:18;;;;;;;9.30;8.60;;;14.20;99.90;;;;;;6270010;22;20157;-86
2023/06/10 00:27:44;;;;;;;10.07;9.37;;;14.30;99.90;;;;;;6270396;22;20160;-84
2023/06/10 00:30:11;;;;;;;8.97;8.27;;;14.30;99.90;;;;;;6269680;22;20192;-86
2023/06/10 00:32:37;;;;;;;9.27;8.70;;;14.30;99.90;;;;;;6269070;22;20153;-86
2023/06/10 00:35:04;;;;;;;9.37;8.57;;;14.40;99.90;;;;;;6270250;22;20236;-86
2023/06/10 00:37:30;;;;;;;8.73;7.93;;;14.40;99.90;;;;;;6269005;22;20196;-88
2023/06/10 00:39:56;;;;;;;8.67;7.67;;;14.30;99.90;;;;;;6269525;22;20161;-85
2023/06/10 00:42:24;;;;;;;8.93;8.27;;;14.40;99.90;;;;;;6268017;22;20483;-86
2023/06/10 00:44:50;;;;;;;8.03;7.23;;;14.40;99.90;;;;;;6267736;22;20206;-85
2023/06/10 00:47:16;;;;;;;7.23;6.67;;;14.30;99.90;;;;;;6243534;22;20176;-88
2023/06/10 00:49:43;;;;;;;7.83;7.13;;;14.30;99.90;;;;;;6242062;22;20179;-86
2023/06/10 00:52:10;;;;;;;8.40;7.13;;;14.40;99.90;;;;;;6269667;22;20890;-87
2023/06/10 00:54:37;;;;;;;8.87;8.13;;;14.30;99.90;;;;;;6268675;22;20733;-87
2023/06/10 00:57:04;;;;;;;7.97;7.27;;;14.30;99.90;;;;;;6268820;22;20163;-85
2023/06/10 00:59:30;;;;;;;7.77;7.23;;;14.30;99.90;;;;;;6218146;22;20161;-82
2023/06/10 01:01:56;;;;;;;8.00;7.30;;;14.30;99.90;;;;;;6269880;22;20167;-85
2023/06/10 01:04:23;;;;;;;8.73;7.90;;;14.30;99.90;;;;;;6269711;22;20160;-84
2023/06/10 01:07:17;;;;;;;8.67;7.83;;;14.30;99.90;;;;;;6268495;22;20214;-85
2023/06/10 01:10:03;;;;;;;7.87;6.60;;;14.40;99.90;;;;;;6269623;22;20348;-88
2023/06/10 01:12:51;;;;;;;8.97;8.17;;;14.40;99.90;;;;;;6269812;22;20153;-85
2023/06/10 01:15:18;;;;;;;7.57;6.90;;;14.30;99.90;;;;;;6269138;22;20163;-85
2023/06/10 01:18:03;;;;;;;7.80;7.03;;;14.20;99.90;;;;;;6268333;22;20156;-85
2023/06/10 01:20:31;;;;;;;6.80;6.30;;;14.20;99.90;;;;;;6268539;22;20152;-87
2023/06/10 01:22:58;;;;;;;6.63;5.97;;;14.00;99.90;;;;;;6268626;22;20222;-87
2023/06/10 01:25:29;;;;;;;7.03;5.83;;;14.00;99.90;;;;;;6243273;22;20533;-85
2023/06/10 01:28:06;;;;;;;6.70;6.10;;;14.00;99.90;;;;;;6268585;22;20581;-85
2023/06/10 01:30:57;;;;;;;7.77;6.40;;;13.90;99.90;;;;;;6268591;22;20262;-86
2023/06/10 01:33:29;;;;;;;6.77;6.30;;;13.90;99.90;;;;;;6267213;22;20197;-86
2023/06/10 01:36:01;;;;;;;7.47;6.70;;;13.80;99.90;;;;;;6269224;22;20195;-85
2023/06/10 01:38:32;;;;;;;6.33;5.80;;;13.80;99.90;;;;;;6267699;22;20198;-84
2023/06/10 01:40:58;;;;;;;7.93;7.23;;;13.80;99.90;;;;;;6266603;22;20191;-84
2023/06/10 01:43:24;;;;;;;6.93;6.23;;;13.90;99.90;;;;;;6267729;22;20223;-87
2023/06/10 01:45:50;;;;;;;7.57;6.87;;;13.80;99.90;;;;;;6268140;22;20161;-85
2023/06/10 01:48:16;;;;;;;7.70;7.00;;;13.80;99.90;;;;;;6269405;22;20219;-85
2023/06/10 01:50:43;;;;;;;9.33;7.17;;;13.70;99.90;;;;;;6242635;22;20499;-87
2023/06/10 01:53:09;;;;;;;8.00;7.30;;;13.70;99.90;;;;;;6243032;22;20188;-87
2023/06/10 01:55:35;;;;;;;8.67;7.87;;;13.50;99.90;;;;;;6269775;22;20161;-85
2023/06/10 01:58:01;;;;;;;8.53;7.93;;;13.50;99.90;;;;;;6243288;22;20921;-87
2023/06/10 02:00:26;;;;;;;10.30;9.50;;;13.40;99.90;;;;;;6269270;22;20157;-85
2023/06/10 02:02:52;;;;;;;9.03;8.03;;;13.30;99.90;;;;;;6217086;22;20157;-85
2023/06/10 02:05:18;;;;;;;9.17;8.57;;;13.20;99.90;;;;;;6216785;22;20163;-89
2023/06/10 02:07:44;;;;;;;10.77;9.77;;;13.10;99.90;;;;;;6266183;22;20153;-86
2023/06/10 02:10:10;;;;;;;13.20;12.47;;;13.10;99.90;;;;;;6241445;22;20260;-87
2023/06/10 02:12:36;;;;;;;13.17;12.27;;;13.10;99.90;;;;;;6266316;22;20165;-86
2023/06/10 02:15:01;;;;;;;12.63;12.00;;;13.00;99.90;;;;;;6242139;22;20168;-86
2023/06/10 02:17:27;;;;;;;14.23;13.47;;;13.00;99.90;;;;;;6241995;22;20967;-88
2023/06/10 02:19:53;;;;;;;14.17;13.17;;;13.00;99.90;;;;;;6268698;22;20188;-88
2023/06/10 02:22:22;;;;;;;13.67;12.87;;;13.00;99.90;;;;;;6268770;22;20160;-88
2023/06/10 02:24:49;;;;;;;13.57;12.77;;;13.00;99.90;;;;;;6241792;22;20160;-88
2023/06/10 02:27:15;;;;;;;14.43;13.37;;;13.00;99.90;;;;;;6267412;22;20153;-85
2023/06/10 02:29:41;;;;;;;15.23;14.47;;;13.00;99.90;;;;;;6267997;22;20192;-87
2023/06/10 02:32:08;;;;;;;18.10;17.10;;;12.90;99.90;;;;;;6265576;22;20183;-87
2023/06/10 02:34:34;;;;;;;19.70;18.70;;;12.90;99.90;;;;;;6265200;22;20654;-84
2023/06/10 02:37:00;;;;;;;21.97;20.87;;;12.90;99.90;;;;;;6266954;22;20632;-85
2023/06/10 02:39:26;;;;;;;24.33;23.10;;;12.80;99.90;;;;;;6267407;22;20661;-86
2023/06/10 02:41:52;;;;;;;24.00;22.90;;;12.80;99.90;;;;;;6268019;22;20161;-86
2023/06/10 02:44:19;;;;;;;26.40;25.10;;;12.80;99.90;;;;;;6242341;22;20168;-86
2023/06/10 02:46:45;;;;;;;28.10;26.60;;;12.80;99.90;;;;;;6267364;22;20152;-86
2023/06/10 02:49:11;;;;;;;30.33;28.83;;;12.80;99.90;;;;;;6267632;22;20167;-85
2023/06/10 02:51:37;;;;;;;32.77;31.37;;;12.80;99.90;;;;;;6267384;22;20596;-85
2023/06/10 02:54:03;;;;;;;33.43;31.77;;;12.80;99.90;;;;;;6267638;22;20185;-84
2023/06/10 02:56:29;;;;;;;32.50;31.17;;;12.90;99.90;;;;;;6267231;22;20156;-87
2023/06/10 02:58:55;;;;;;;34.43;33.03;;;12.90;99.90;;;;;;6242067;22;20646;-87
2023/06/10 03:01:21;;;;;;;32.30;31.00;;;12.80;99.90;;;;;;6269255;22;20278;-86
2023/06/10 03:03:47;;;;;;;34.23;32.90;;;12.80;99.90;;;;;;6266558;22;20925;-89
2023/06/10 03:06:13;;;;;;;35.10;33.70;;;12.70;99.90;;;;;;6268096;22;20156;-86
2023/06/10 03:08:40;;;;;;;34.70;33.20;;;12.70;99.90;;;;;;6266915;22;20153;-85
2023/06/10 03:11:06;;;;;;;34.67;32.73;;;12.70;99.90;;;;;;6268682;22;20604;-89
2023/06/10 03:13:32;;;;;;;30.53;29.13;;;12.70;99.90;;;;;;6267395;22;20225;-85
2023/06/10 03:15:58;;;;;;;33.37;31.87;;;12.60;99.90;;;;;;6268097;22;20184;-86
2023/06/10 03:18:27;;;;;;;31.33;30.13;;;12.60;99.90;;;;;;6268921;22;20167;-86
2023/06/10 03:20:54;;;;;;;33.50;32.00;;;12.60;99.90;;;;;;6243326;22;20261;-86
2023/06/10 03:23:21;;;;;;;31.67;30.33;;;12.50;99.90;;;;;;6267123;22;20165;-86
2023/06/10 03:25:46;;;;;;;33.13;31.43;;;12.50;99.90;;;;;;6266442;22;20161;-85
2023/06/10 03:28:12;;;;;;;35.57;34.30;;;12.40;99.90;;;;;;6242285;22;20164;-84
2023/06/10 03:30:38;;;;;;;35.10;33.37;;;12.40;99.90;;;;;;6264227;22;20207;-85
2023/06/10 03:33:04;;;;;;;37.30;35.90;;;12.40;99.90;;;;;;6238949;22;20189;-86
2023/06/10 03:35:30;;;;;;;37.50;36.00;;;12.50;99.90;;;;;;6269021;22;20199;-87
2023/06/10 03:37:55;;;;;;;43.00;41.10;;;12.50;99.90;;;;;;6267780;22;20474;-85
2023/06/10 03:40:21;;;;;;;42.90;41.40;;;12.40;99.90;;;;;;6242517;22;20573;-86
2023/06/10 03:42:47;;;;;;;47.97;46.03;;;12.40;99.90;;;;;;6242041;22;20160;-87
2023/06/10 03:45:13;;;;;;;47.23;45.53;;;12.40;99.90;;;;;;6217243;22;20210;-89
2023/06/10 03:47:40;;;;;;;47.67;45.90;;;12.50;99.90;;;;;;6268140;22;20151;-86
2023/06/10 03:50:07;;;;;;;55.60;53.27;;;12.50;99.90;;;;;;6266844;22;20608;-87
2023/06/10 03:52:34;;;;;;;57.87;55.60;;;12.50;99.90;;;;;;6267809;22;20161;-87
2023/06/10 03:55:00;;;;;;;62.30;59.90;;;12.50;99.90;;;;;;6268130;22;20495;-86
2023/06/10 03:57:26;;;;;;;76.77;73.90;;;12.60;99.90;;;;;;6267416;22;20153;-88
2023/06/10 03:59:52;;;;;;;80.53;77.77;;;12.60;99.90;;;;;;6266537;22;20192;-88
2023/06/10 04:02:17;;;;;;;91.13;87.60;;;12.60;99.90;;;;;;6266948;22;20180;-86
2023/06/10 04:04:43;;;;;;;107.93;104.57;;;12.70;99.90;;;;;;6267227;22;20165;-89
2023/06/10 04:07:09;;;;;;;121.37;117.07;;;12.70;99.90;;;;;;6266979;22;20161;-87
2023/06/10 04:09:36;;;;;;;138.40;133.90;;;12.80;99.90;;;;;;6266970;22;20161;-89
2023/06/10 04:12:02;;;;;;;140.93;136.40;;;12.90;99.90;;;;;;6267601;22;20159;-87
2023/06/10 04:14:28;;;;;;;150.63;145.90;;;12.90;99.90;;;;;;6266752;22;20204;-86
2023/06/10 04:16:54;;;;;;;144.03;139.07;;;13.00;99.90;;;;;;6266609;22;20738;-85
2023/06/10 04:19:20;;;;;;;142.80;138.40;;;13.00;99.90;;;;;;6268440;22;20590;-85
2023/06/10 04:21:46;;;;;;;129.43;125.30;;;13.10;99.90;;;;;;6266966;22;20165;-86
2023/06/10 04:24:12;;;;;;;105.23;101.87;;;13.20;99.90;;;;;;6240762;22;20466;-88
2023/06/10 04:26:38;;;;;;;94.93;91.77;;;13.20;99.90;;;;;;6266380;22;20188;-86
2023/06/10 04:29:04;;;;;;;93.90;90.80;;;13.30;99.90;;;;;;6266690;22;20469;-85
2023/06/10 04:31:29;;;;;;;103.53;100.23;;;13.40;99.90;;;;;;6241688;22;20203;-85
2023/06/10 04:33:55;;;;;;;128.77;124.60;;;13.40;99.90;;;;;;6241723;22;20297;-85
2023/06/10 04:36:21;;;;;;;156.30;151.47;;;13.50;99.90;;;;;;6268768;22;20807;-90
2023/06/10 04:38:47;;;;;;;179.17;173.53;;;13.60;99.90;;;;;;6241810;22;20153;-85
2023/06/10 04:41:13;;;;;;;208.03;201.73;;;13.70;99.90;;;;;;6217822;22;20164;-86
2023/06/10 04:43:38;;;;;;;210.97;204.63;;;13.80;99.90;;;;;;6270222;22;20169;-87
2023/06/10 04:46:05;;;;;;;218.83;212.33;;;13.80;99.90;;;;;;6270895;22;20180;-88
2023/06/10 04:48:30;;;;;;;207.17;200.97;;;13.90;99.90;;;;;;6270398;22;20157;-91
2023/06/10 04:50:56;;;;;;;204.77;198.50;;;14.00;99.90;;;;;;6269187;22;20177;-86
2023/06/10 04:53:22;;;;;;;217.07;210.63;;;14.10;99.90;;;;;;6269221;22;20188;-88
2023/06/10 04:55:48;;;;;;;234.10;227.20;;;14.10;99.90;;;;;;6244011;22;20157;-85
2023/06/10 04:58:14;;;;;;;273.93;265.93;;;14.20;99.90;;;;;;6269516;22;20530;-86
2023/06/10 05:00:41;;;;;;;292.33;283.07;;;14.30;99.90;;;;;;6242959;22;20164;-91
2023/06/10 05:03:07;;;;;;;331.73;321.30;;;14.40;99.90;;;;;;6267385;22;20161;-87
2023/06/10 05:05:33;;;;;;;348.13;337.37;;;14.40;99.90;;;;;;6241205;22;20161;-91
2023/06/10 05:07:58;;;;;;;380.00;367.77;;;14.50;99.90;;;;;;6218706;22;20192;-87
2023/06/10 05:10:24;;;;;;;380.37;368.20;;;14.60;99.90;;;;;;6244206;22;20161;-86
2023/06/10 05:12:50;;;;;;;382.53;370.17;;;14.70;99.90;;;;;;6243012;22;20165;-88
2023/06/10 05:15:16;;;;;;;350.87;340.10;;;15.30;99.90;;;;;;6269697;22;20157;-87
2023/06/10 05:17:41;;;;;;;331.30;321.20;;;17.00;99.90;;;;;;6270192;22;20149;-88
2023/06/10 05:20:08;;;;;;;281.63;272.93;;;18.80;99.90;;;;;;6244032;22;20279;-90
2023/06/10 05:22:34;;;;;;;190.03;184.13;;;19.20;99.90;;;;;;6268825;22;20606;-91
2023/06/10 05:25:00;;;;;;;133.93;129.40;;;18.20;99.90;;;;;;6268355;22;20165;-87
2023/06/10 05:27:26;;;;;;;151.83;146.83;;;18.80;99.90;;;;;;6243694;22;20164;-91
2023/06/10 05:29:51;;;;;;;165.53;160.13;;;20.10;99.90;;;;;;6243021;22;20207;-90
2023/06/10 05:32:18;;;;;;;164.40;159.30;;;20.80;99.90;;;;;;6268953;22;20455;-88
2023/06/10 05:34:43;;;;;;;131.33;127.03;;;21.70;99.90;;;;;;6243494;22;20196;-86
2023/06/10 05:37:09;;;;;;;92.73;89.73;;;22.10;99.90;;;;;;6268560;22;20153;-84
2023/06/10 05:39:37;;;;;;;85.00;81.83;;;21.70;99.90;;;;;;6218053;22;20157;-88
2023/06/10 05:42:06;;;;;;;86.03;83.03;;;21.40;99.90;;;;;;6268845;22;20161;-88
2023/06/10 05:44:32;;;;;;;92.90;89.73;;;21.10;99.90;;;;;;6268436;22;20169;-89
2023/06/10 05:46:58;;;;;;;104.27;100.87;;;21.10;99.90;;;;;;6268772;22;20159;-92
2023/06/10 05:49:24;;;;;;;113.37;109.77;;;21.60;99.90;;;;;;6269398;22;20153;-91
2023/06/10 05:51:52;;;;;;;140.17;135.20;;;21.10;99.90;;;;;;6268395;22;20232;-89
2023/06/10 05:54:18;;;;;;;137.37;132.77;;;21.30;99.90;;;;;;6268724;22;20185;-91
2023/06/10 05:56:44;;;;;;;155.63;150.63;;;21.10;99.90;;;;;;6266051;22;20163;-90
2023/06/10 05:59:10;;;;;;;174.10;168.37;;;21.50;99.90;;;;;;6268600;22;20161;-90
2023/06/10 06:01:36;;;;;;;180.90;175.30;;;21.10;99.90;;;;;;6219029;22;20668;-93
2023/06/10 06:04:02;;;;;;;182.15;176.70;;;21.30;99.90;;;;;;6246398;22;20161;-93
2023/06/10 06:06:28;;;;;;;196.80;190.93;;;21.40;99.90;;;;;;6271798;22;20179;-93
2023/06/10 06:08:53;;;;;;;182.63;177.05;;;20.90;99.90;;;;;;6269806;22;20283;-92
2023/06/10 06:11:19;;;;;;;199.38;193.30;;;21.40;99.90;;;;;;6270307;22;20180;-92
2023/06/10 06:13:45;;;;;;;196.07;190.23;;;21.20;99.90;;;;;;6246083;22;20193;-91
2023/06/10 06:16:11;;;;;;;184.43;178.87;;;21.00;99.90;;;;;;6271326;22;20456;-92
2023/06/10 06:18:37;;;;;;;170.40;164.60;;;21.10;99.90;;;;;;6271192;22;20407;-94
2023/06/10 06:21:02;;;;;;;164.93;159.57;;;21.00;99.90;;;;;;6269946;22;20161;-92
2023/06/10 06:23:28;;;;;;;222.82;216.07;;;21.90;99.90;;;;;;6268654;22;20164;-91
2023/06/10 06:25:54;;;;;;;218.00;211.27;;;22.00;99.90;;;;;;6267048;22;20163;-92
2023/06/10 06:28:21;;;;;;;248.85;241.63;;;21.80;99.90;;;;;;6269175;22;20291;-90
2023/06/10 06:30:47;;;;;;;246.40;239.18;;;22.20;99.90;;;;;;6283010;22;20200;-89
2023/06/10 06:33:13;;;;;;;262.77;254.95;;;22.40;99.90;;;;;;6268894;22;20526;-88
2023/06/10 06:35:40;;;;;;;262.48;254.70;;;22.20;99.90;;;;;;6268714;22;20478;-87
2023/06/10 06:38:06;;;;;;;293.58;284.80;;;22.00;99.90;;;;;;6269455;22;20165;-92
2023/06/10 06:40:31;;;;;;;287.00;278.42;;;21.90;99.90;;;;;;6271149;22;20188;-92
2023/06/10 06:42:57;;;;;;;285.58;277.23;;;21.70;99.90;;;;;;6272271;22;21027;-93
2023/06/10 06:45:23;;;;;;;302.65;293.92;;;22.00;99.90;;;;;;6270517;22;20510;-92
2023/06/10 06:47:49;;;;;;;304.77;295.73;;;22.10;99.90;;;;;;6268212;22;20206;-92
2023/06/10 06:50:16;;;;;;;302.00;293.10;;;22.20;99.90;;;;;;6271201;22;20156;-91
2023/06/10 06:52:42;;;;;;;316.10;306.38;;;22.70;99.90;;;;;;6270804;22;20163;-90
2023/06/10 06:55:08;;;;;;;315.90;306.25;;;23.00;99.90;;;;;;6269891;22;20271;-91
2023/06/10 06:57:33;;;;;;;308.73;299.30;;;22.70;99.90;;;;;;6269537;22;20183;-94
2023/06/10 06:59:59;;;;;;;310.55;300.85;;;22.70;99.90;;;;;;6219469;22;20157;-91
2023/06/10 07:02:25;;;;;;;311.17;301.27;;;23.10;99.90;;;;;;6270579;22;20153;-92
2023/06/10 07:04:51;;;;;;;313.52;304.20;;;23.20;99.90;;;;;;6242530;22;20244;-92
2023/06/10 07:07:17;;;;;;;296.35;287.25;;;23.50;99.90;;;;;;6242726;22;20569;-92
2023/06/10 07:09:42;;;;;;;301.63;292.67;;;23.50;99.90;;;;;;6242484;22;20211;-89
2023/06/10 07:12:09;;;;;;;319.30;309.80;;;23.20;99.90;;;;;;6243070;22;20160;-92
2023/06/10 07:14:34;;;;;;;307.00;297.58;;;23.30;99.90;;;;;;6242260;22;20596;-92
2023/06/10 07:17:00;;;;;;;301.58;292.55;;;23.50;99.90;;;;;;6242664;22;20591;-91
2023/06/10 07:19:26;;;;;;;289.73;281.05;;;23.50;99.90;;;;;;6217647;22;20488;-93
2023/06/10 07:21:52;;;;;;;280.42;271.85;;;23.90;99.90;;;;;;6268129;22;20596;-93
2023/06/10 07:24:19;;;;;;;270.17;262.10;;;23.20;99.90;;;;;;6242525;22;20647;-94
2023/06/10 07:26:45;;;;;;;252.07;244.32;;;23.20;99.90;;;;;;6243242;22;20163;-94
2023/06/10 07:29:12;;;;;;;232.55;225.60;;;23.70;99.90;;;;;;6268422;22;20235;-94
2023/06/10 07:31:38;;;;;;;244.18;236.50;;;23.90;99.90;;;;;;6268020;22;20192;-93
2023/06/10 07:34:04;;;;;;;177.52;171.93;;;24.20;99.90;;;;;;6268109;22;20693;-94
2023/06/10 07:36:30;;;;;;;174.93;169.52;;;24.70;99.90;;;;;;6268036;22;20153;-93
2023/06/10 07:38:55;;;;;;;120.82;116.72;;;24.90;99.90;;;;;;6266376;22;20262;-92
2023/06/10 07:41:25;;;;;;;141.23;136.77;;;24.10;99.90;;;;;;6268504;22;20370;-93
2023/06/10 07:43:54;;;;;;;150.07;144.90;;;24.10;99.90;;;;;;6267498;22;20183;-93
2023/06/10 07:46:22;;;;;;;120.03;115.72;;;23.50;99.90;;;;;;6268792;22;20152;-94
2023/06/10 07:48:48;;;;;;;111.78;107.85;;;23.70;99.90;;;;;;6242591;22;20157;-94
2023/06/10 07:51:15;;;;;;;125.45;121.15;;;23.90;99.90;;;;;;6268214;22;20212;-93
2023/06/10 07:53:41;;;;;;;95.18;91.88;;;24.20;99.90;;;;;;6268534;22;20330;-93
2023/06/10 07:56:07;;;;;;;97.50;94.20;;;24.40;99.90;;;;;;6243096;22;20616;-92
2023/06/10 07:58:32;;;;;;;94.13;90.93;;;24.40;99.90;;;;;;6243155;22;20196;-94
2023/06/10 08:00:58;;;;;;;90.40;87.20;;;23.90;99.90;;;;;;6267958;22;20238;-94
2023/06/10 08:03:24;;;;;;;86.68;83.75;;;24.10;99.90;;;;;;6217097;22;20165;-91
2023/06/10 08:05:50;;;;;;;87.20;84.15;;;24.10;99.90;;;;;;6268909;22;20160;-92
2023/06/10 08:08:16;;;;;;;88.57;85.32;;;24.40;99.90;;;;;;6267986;22;20157;-93
2023/06/10 08:10:41;;;;;;;90.13;86.90;;;24.40;99.90;;;;;;6269295;22;20464;-92
2023/06/10 08:13:08;;;;;;;95.00;91.90;;;24.30;99.90;;;;;;6268216;22;20903;-92
2023/06/10 08:15:34;;;;;;;91.03;87.97;;;24.40;99.90;;;;;;6243161;22;20168;-89
2023/06/10 08:18:00;;;;;;;89.60;86.38;;;24.40;99.90;;;;;;6270287;22;20489;-92
2023/06/10 08:20:26;;;;;;;91.78;88.68;;;24.40;99.90;;;;;;6244322;22;20608;-93
2023/06/10 08:22:51;;;;;;;87.43;84.53;;;24.60;99.90;;;;;;6269605;22;20156;-94
2023/06/10 08:25:17;;;;;;;91.53;88.43;;;24.90;99.90;;;;;;6244327;22;20160;-93
2023/06/10 08:27:43;;;;;;;98.60;95.07;;;24.60;99.90;;;;;;6268021;22;20149;-90
2023/06/10 08:30:10;;;;;;;98.88;95.65;;;24.50;99.90;;;;;;6243528;22;20596;-92
2023/06/10 08:32:36;;;;;;;98.35;95.10;;;24.90;99.90;;;;;;6271035;22;20415;-91
2023/06/10 08:35:05;;;;;;;105.40;101.90;;;24.80;99.90;;;;;;6270917;22;20189;-91
2023/06/10 08:37:31;;;;;;;107.78;104.22;;;25.10;99.90;;;;;;6244984;22;20161;-93
2023/06/10 08:39:57;;;;;;;102.70;99.30;;;25.20;99.90;;;;;;6244256;22;20153;-93
2023/06/10 08:42:50;;;;;;;103.20;99.80;;;25.20;99.90;;;;;;6243641;22;20156;-93
2023/06/10 08:45:19;;;;;;;107.35;103.85;;;25.50;99.90;;;;;;6257703;22;20165;-92
2023/06/10 08:47:48;;;;;;;100.80;97.55;;;25.40;99.90;;;;;;6269310;22;20227;-91
2023/06/10 08:50:16;;;;;;;110.13;106.60;;;25.10;99.90;;;;;;6243602;22;20153;-92
2023/06/10 08:52:44;;;;;;;103.72;100.22;;;25.20;99.90;;;;;;6268075;22;20160;-93
2023/06/10 08:55:26;;;;;;;98.55;95.15;;;25.30;99.90;;;;;;6269335;22;20199;-90
2023/06/10 08:57:52;;;;;;;107.50;103.70;;;25.50;99.90;;;;;;6269171;22;20148;-92
2023/06/10 09:00:19;;;;;;;103.60;100.20;;;25.20;99.90;;;;;;6268149;22;20266;-91
2023/06/10 09:02:45;;;;;;;100.53;97.30;;;25.10;99.90;;;;;;6268786;22;20153;-93
2023/06/10 09:05:13;;;;;;;102.38;99.00;;;25.40;99.90;;;;;;6269438;22;20160;-92
2023/06/10 09:07:39;;;;;;;105.90;102.50;;;25.20;99.90;;;;;;6243655;22;20153;-93
2023/06/10 09:10:07;;;;;;;103.78;100.22;;;25.30;99.90;;;;;;6268496;22;20778;-93
2023/06/10 09:12:38;;;;;;;105.57;102.07;;;25.40;99.90;;;;;;6269412;22;20152;-92
2023/06/10 09:15:06;;;;;;;101.20;97.90;;;25.40;99.90;;;;;;6269439;22;20203;-90
2023/06/10 09:17:32;;;;;;;99.45;95.85;;;25.20;99.90;;;;;;6246033;22;20623;-93
2023/06/10 09:19:59;;;;;;;89.53;86.40;;;25.40;99.90;;;;;;6243871;22;20161;-93
2023/06/10 09:22:26;;;;;;;89.88;86.88;;;25.10;99.90;;;;;;6270304;22;20153;-92
2023/06/10 09:25:03;;;;;;;95.22;91.90;;;25.30;99.90;;;;;;6270609;22;20495;-91
2023/06/10 09:27:31;;;;;;;95.10;92.07;;;25.40;99.90;;;;;;6270280;22;20150;-91
2023/06/10 09:29:58;;;;;;;96.68;93.20;;;25.40;99.90;;;;;;6244333;22;20272;-92
2023/06/10 09:32:24;;;;;;;97.13;93.75;;;25.60;99.90;;;;;;6270465;22;20505;-92
2023/06/10 09:34:50;;;;;;;102.15;98.65;;;25.60;99.90;;;;;;6271785;22;20188;-93
2023/06/10 09:37:23;;;;;;;96.68;93.57;;;25.50;99.90;;;;;;6284218;22;20157;-91
2023/06/10 09:40:06;;;;;;;99.55;96.25;;;25.80;99.90;;;;;;6220993;22;20214;-90
2023/06/10 09:42:35;;;;;;;93.10;90.05;;;26.00;99.90;;;;;;6244980;22;20592;-92
2023/06/10 09:45:02;;;;;;;98.20;94.85;;;25.80;99.90;;;;;;6271195;22;20199;-91
2023/06/10 09:47:28;;;;;;;102.57;99.28;;;25.80;99.90;;;;;;6269665;22;20160;-92
2023/06/10 09:49:54;;;;;;;96.72;93.45;;;25.90;99.90;;;;;;6244040;22;20171;-91
2023/06/10 09:52:27;;;;;;;98.97;95.57;;;25.50;99.90;;;;;;6243624;22;20161;-93
2023/06/10 09:54:58;;;;;;;99.22;95.97;;;26.00;99.90;;;;;;6269715;22;20226;-92
2023/06/10 09:57:24;;;;;;;96.18;92.97;;;25.90;99.90;;;;;;6269209;22;20534;-93
2023/06/10 09:59:53;;;;;;;91.70;88.15;;;25.40;99.90;;;;;;6244167;22;20156;-92
2023/06/10 10:02:20;;;;;;;89.65;86.40;;;25.70;99.90;;;;;;6271177;22;20161;-91
2023/06/10 10:04:46;;;;;;;94.60;91.28;;;25.30;99.90;;;;;;6268341;22;20596;-92
2023/06/10 10:07:12;;;;;;;84.78;81.50;;;25.20;99.90;;;;;;6243627;22;20165;-92
2023/06/10 10:09:39;;;;;;;80.80;77.95;;;25.10;99.90;;;;;;6269028;22;20164;-92
2023/06/10 10:12:15;;;;;;;77.10;74.35;;;25.30;99.90;;;;;;6268607;22;20157;-93
2023/06/10 10:14:46;;;;;;;77.32;74.60;;;25.40;99.90;;;;;;6268367;22;20191;-92
2023/06/10 10:17:15;;;;;;;76.60;74.00;;;25.70;99.90;;;;;;6268640;22;20149;-93
2023/06/10 10:19:48;;;;;;;85.15;82.15;;;25.50;99.90;;;;;;6268205;22;20600;-91
2023/06/10 10:22:41;;;;;;;80.15;77.35;;;25.80;99.90;;;;;;6268145;22;20636;-90
2023/06/10 10:25:22;;;;;;;74.78;72.18;;;25.30;99.90;;;;;;6268280;22;20164;-91
2023/06/10 10:27:51;;;;;;;76.95;74.15;;;25.60;99.90;;;;;;6269180;22;20231;-91
2023/06/10 10:30:20;;;;;;;74.13;71.47;;;25.60;99.90;;;;;;6268384;22;20214;-90
2023/06/10 10:32:57;;;;;;;79.47;76.55;;;25.20;99.90;;;;;;6268522;22;20145;-89
2023/06/10 10:35:24;;;;;;;77.10;74.20;;;25.20;99.90;;;;;;6269473;22;20168;-91
2023/06/10 10:37:52;;;;;;;75.28;72.50;;;25.00;99.90;;;;;;6269424;22;20157;-93
2023/06/10 10:40:20;;;;;;;80.72;78.05;;;25.40;99.90;;;;;;6267959;22;20638;-92
2023/06/10 10:42:48;;;;;;;74.50;71.90;;;25.30;99.90;;;;;;6268638;22;20157;-90
2023/06/10 10:45:14;;;;;;;70.82;67.95;;;25.40;99.90;;;;;;6242674;22;20251;-92
2023/06/10 10:47:42;;;;;;;67.85;65.30;;;25.30;99.90;;;;;;6242788;22;20180;-91
2023/06/10 10:50:19;;;;;;;73.13;70.53;;;25.00;99.90;;;;;;6243620;22;20161;-92
2023/06/10 10:53:05;;;;;;;79.88;77.07;;;25.20;99.90;;;;;;6268074;22;20148;-91
2023/06/10 10:55:31;;;;;;;79.85;76.65;;;24.90;99.90;;;;;;6268888;22;20173;-92
2023/06/10 10:58:04;;;;;;;92.45;89.10;;;24.70;99.90;;;;;;6218091;22;20164;-92
2023/06/10 11:00:35;;;;;;;107.00;103.13;;;24.60;99.90;;;;;;6268054;22;20161;-92
2023/06/10 11:03:07;;;;;;;92.10;89.05;;;24.70;99.90;;;;;;6268369;22;20226;-92
2023/06/10 11:05:48;;;;;;;104.50;100.72;;;24.50;99.90;;;;;;6269473;22;20608;-91
2023/06/10 11:08:15;;;;;;;139.43;134.93;;;24.50;99.90;;;;;;6244447;22;20180;-92
2023/06/10 11:10:51;;;;;;;156.32;151.40;;;24.60;99.90;;;;;;6243716;22;20160;-92
2023/06/10 11:13:20;;;;;;;140.43;135.65;;;24.50;99.90;;;;;;6269058;22;20184;-92
2023/06/10 11:15:49;;;;;;;208.98;202.40;;;24.00;99.90;;;;;;6268525;22;20157;-93
2023/06/10 11:18:24;;;;;;;223.55;216.65;;;23.90;99.90;;;;;;6269172;22;20254;-93
2023/06/10 11:20:52;;;;;;;249.02;241.43;;;23.70;99.90;;;;;;6243399;22;20603;-92
2023/06/10 11:23:27;;;;;;;290.25;281.55;;;23.50;99.90;;;;;;6268703;22;20164;-93
2023/06/10 11:26:12;;;;;;;314.63;305.02;;;23.30;99.90;;;;;;6269119;22;20186;-93
2023/06/10 11:28:47;;;;;;;326.50;316.35;;;23.60;99.90;;;;;;6268460;22;20184;-92
2023/06/10 11:31:20;;;;;;;329.25;319.33;;;23.80;99.90;;;;;;6267968;22;20200;-92
2023/06/10 11:33:53;;;;;;;318.30;308.85;;;23.60;99.90;;;;;;6243720;22;20193;-92
2023/06/10 11:36:22;;;;;;;328.30;318.20;;;23.80;99.90;;;;;;6268256;22;20229;-91
2023/06/10 11:38:49;;;;;;;328.10;317.65;;;23.70;99.90;;;;;;6268181;22;20607;-92
2023/06/10 11:41:17;;;;;;;310.85;301.52;;;23.60;99.90;;;;;;6268246;22;20303;-93
2023/06/10 11:43:44;;;;;;;296.80;288.13;;;23.20;99.90;;;;;;6268929;22;20184;-92
2023/06/10 11:46:10;;;;;;;304.20;295.05;;;23.30;99.90;;;;;;6268740;22;20211;-91
2023/06/10 11:48:36;;;;;;;314.65;304.17;;;23.50;99.90;;;;;;6270490;22;20153;-89
2023/06/10 11:51:06;;;;;;;250.63;243.32;;;23.40;99.90;;;;;;6270149;22;20183;-92
2023/06/10 11:53:32;;;;;;;224.18;217.38;;;23.30;99.90;;;;;;6269147;22;20210;-92
2023/06/10 11:55:58;;;;;;;208.32;201.70;;;23.90;99.90;;;;;;6271196;22;20445;-91
2023/06/10 11:58:24;;;;;;;213.88;207.27;;;23.80;99.90;;;;;;6219707;22;20499;-91
2023/06/10 12:00:53;;;;;;;193.00;186.73;;;23.50;99.90;;;;;;6269965;22;20199;-91
2023/06/10 12:03:19;;;;;;;180.30;174.65;;;23.30;99.90;;;;;;6270229;22;20603;-92
2023/06/10 12:06:02;;;;;;;194.82;188.80;;;23.40;99.90;;;;;;6271334;22;20163;-91
2023/06/10 12:08:28;;;;;;;190.85;185.10;;;23.20;99.90;;;;;;6270470;22;20248;-92
2023/06/10 12:10:55;;;;;;;150.20;144.77;;;22.70;99.90;;;;;;6270507;22;20152;-91
2023/06/10 12:13:21;;;;;;;143.45;138.48;;;23.00;99.90;;;;;;6270979;22;20181;-92
2023/06/10 12:15:47;;;;;;;143.77;139.10;;;23.10;99.90;;;;;;6270215;22;20537;-93
2023/06/10 12:18:21;;;;;;;130.13;126.00;;;22.90;99.90;;;;;;6270167;22;20600;-92
2023/06/10 12:20:48;;;;;;;134.98;130.50;;;23.30;99.90;;;;;;6269722;22;20252;-91
2023/06/10 12:23:14;;;;;;;127.40;123.10;;;23.40;99.90;;;;;;6270251;22;20157;-91